Hurricane Grove, Arkansas
Current Conditions -  °F | °C
As of 3:23 PM on Sunday 23 Nov 2014 (Local Time) from KMWT Reporting Station
Scattered Clouds Scattered Clouds  
Wind Chill: 67°   Ceiling: Unl
Heat Index: 67°   Visibility: 10mi
Dew Point: 57°   Wind: 3mph
Humidity: 70%   Direction: NA
Pressure: 29.3"   Gusts: NA
Location:  34.537°N, 93.6725°W
Report Text: KMWT 232123Z AUTO VRB03KT 10SM SCT021 19/14 A2930 RMK AO2 T01940139
Loading
Personal Weather Stations






























Interactive Weather Map New forecast layout! Learn more

10-Day Weather Forecast

Advertisements
Track Severe Weather on mobile